Terminal Aerodrome Forecast
Issued by NWS

Home | Current Version | Previous Version | Text Only | Print | Product List | Glossary On
Versions: 1 2 3 4 5 6 7 8 9 10 11 12 13 14 15 16
000
FTUS41 KCAR 021120
TAFPQI
TAF
KPQI 021120Z 0212/0312 24004KT P6SM SCT250
     FM021800 24008KT P6SM VCSH BKN060
     FM022200 24009KT P6SM SCT050 BKN070
     FM030100 18005KT P6SM BKN250
      AMD LTD TO CLD VIS AND WIND=

USA.gov is the U.S. government's official web portal to all federal, state and local government web resources and services.